createdAt,value
2022-11-20T00:01:54.413Z,211.43
2022-11-20T00:04:23.936Z,201.98
2022-11-20T00:06:53.006Z,220.95
2022-11-20T00:09:22.732Z,213.73
2022-11-20T00:11:52.329Z,213.82
2022-11-20T00:14:21.337Z,206.98
2022-11-20T00:16:50.560Z,204.43
2022-11-20T00:19:20.031Z,209.93
2022-11-20T00:21:49.964Z,198.57
2022-11-20T00:24:18.835Z,204.68
2022-11-20T00:26:47.926Z,220.65
2022-11-20T00:29:17.827Z,202.43
2022-11-20T00:31:46.981Z,212.48
2022-11-20T00:34:16.078Z,205.38
2022-11-20T00:36:45.179Z,218.35
2022-11-20T00:39:14.195Z,220.30
2022-11-20T00:41:43.499Z,218.05
2022-11-20T00:44:12.333Z,202.98
2022-11-20T00:46:41.249Z,228.52
2022-11-20T00:49:10.529Z,209.32
2022-11-20T00:51:39.720Z,211.40
2022-11-20T00:54:08.758Z,199.52
2022-11-20T00:56:37.918Z,215.95
2022-11-20T00:59:06.995Z,207.80
2022-11-20T01:01:39.514Z,203.13
2022-11-20T01:04:10.162Z,199.85
2022-11-20T01:06:41.968Z,223.52
2022-11-20T01:09:17.059Z,215.38
2022-11-20T01:11:48.659Z,241.85
2022-11-20T01:14:23.272Z,209.50
2022-11-20T01:16:54.473Z,226.82
2022-11-20T01:19:26.236Z,225.43
2022-11-20T01:21:57.700Z,242.20
2022-11-20T01:24:28.974Z,244.93
2022-11-20T01:26:58.807Z,243.55
2022-11-20T01:29:28.766Z,236.32
2022-11-20T01:31:58.275Z,250.40
2022-11-20T01:34:28.228Z,259.73
2022-11-20T01:36:58.133Z,244.10
2022-11-20T01:39:29.679Z,236.98
2022-11-20T01:42:17.615Z,254.07
2022-11-20T01:45:02.375Z,275.83
2022-11-20T01:47:34.849Z,294.10
2022-11-20T01:50:41.843Z,288.13
2022-11-20T01:53:16.819Z,269.25
2022-11-20T01:55:52.679Z,252.10
2022-11-20T01:58:29.852Z,250.60
2022-11-20T02:01:00.012Z,231.73
2022-11-20T02:03:31.147Z,243.18
2022-11-20T02:06:33.377Z,221.00
2022-11-20T02:09:03.457Z,208.70
2022-11-20T02:11:34.092Z,208.88
2022-11-20T02:14:03.871Z,204.48
2022-11-20T02:16:51.029Z,223.80
2022-11-20T02:19:30.640Z,232.90
2022-11-20T02:22:00.412Z,223.00
2022-11-20T02:24:30.043Z,237.50
2022-11-20T02:27:13.506Z,242.82
2022-11-20T02:29:48.746Z,247.23
2022-11-20T02:32:25.908Z,254.35
2022-11-20T02:34:55.848Z,231.52
2022-11-20T02:37:31.624Z,233.07
2022-11-20T02:40:01.518Z,239.07
2022-11-20T02:42:31.635Z,215.00
2022-11-20T02:45:01.122Z,198.02
2022-11-20T02:47:30.845Z,192.57
2022-11-20T02:50:01.278Z,197.68
2022-11-20T02:52:31.060Z,187.07
2022-11-20T02:55:01.005Z,211.15
2022-11-20T02:57:30.296Z,172.65
2022-11-20T03:00:00.295Z,163.75
2022-11-20T03:02:33.455Z,140.18
2022-11-20T03:05:03.312Z,168.52
2022-11-20T03:07:32.821Z,176.13
2022-11-20T03:10:02.350Z,138.35
2022-11-20T03:12:32.048Z,124.97
2022-11-20T03:15:01.639Z,123.07
2022-11-20T03:17:32.115Z,155.23
2022-11-20T03:20:01.256Z,139.75
2022-11-20T03:22:32.747Z,124.35
2022-11-20T03:25:02.508Z,104.32
2022-11-20T03:27:36.666Z,102.55
2022-11-20T03:30:07.497Z,90.00
2022-11-20T03:32:37.302Z,78.85
2022-11-20T03:35:07.648Z,95.10
2022-11-20T03:37:37.434Z,89.68
2022-11-20T03:40:07.455Z,75.38
2022-11-20T03:42:48.906Z,92.68
2022-11-20T03:45:19.856Z,78.15
2022-11-20T03:47:49.275Z,73.40
2022-11-20T03:50:18.544Z,67.47
2022-11-20T03:52:47.619Z,62.53
2022-11-20T03:55:16.529Z,67.70
2022-11-20T03:57:46.010Z,74.18
2022-11-20T04:00:15.922Z,75.53
2022-11-20T04:02:45.579Z,66.45
2022-11-20T04:05:14.484Z,84.05
2022-11-20T04:07:43.955Z,69.38
2022-11-20T04:10:12.963Z,74.25
2022-11-20T04:12:41.939Z,77.30
2022-11-20T04:15:11.779Z,82.68
2022-11-20T04:17:40.856Z,69.55
2022-11-20T04:20:10.221Z,72.80
2022-11-20T04:22:39.421Z,71.90
2022-11-20T04:25:08.967Z,92.18
2022-11-20T04:27:37.903Z,108.10
2022-11-20T04:30:07.536Z,48.20
2022-11-20T04:32:37.434Z,56.22
2022-11-20T04:35:07.385Z,50.10
2022-11-20T04:37:36.847Z,52.10
2022-11-20T04:40:06.393Z,55.47
2022-11-20T04:42:35.481Z,50.95
2022-11-20T04:45:04.567Z,46.53
2022-11-20T04:47:36.136Z,50.53
2022-11-20T04:50:05.372Z,48.53
2022-11-20T04:52:34.927Z,53.13
2022-11-20T04:55:03.888Z,59.90
2022-11-20T04:57:33.117Z,61.17
2022-11-20T05:00:02.133Z,58.42
2022-11-20T05:02:35.444Z,73.97
2022-11-20T05:05:04.791Z,73.93
2022-11-20T05:07:33.748Z,69.45
2022-11-20T05:10:02.777Z,67.95
2022-11-20T05:12:31.746Z,68.60
2022-11-20T05:15:00.780Z,67.25
2022-11-20T05:17:29.742Z,69.63
2022-11-20T05:19:58.756Z,71.20
2022-11-20T05:22:27.866Z,62.67
2022-11-20T05:24:56.929Z,64.82
2022-11-20T05:27:26.249Z,64.63
2022-11-20T05:29:55.069Z,75.20
2022-11-20T05:32:27.492Z,62.50
2022-11-20T05:34:56.627Z,69.55
2022-11-20T05:37:25.469Z,51.75
2022-11-20T05:39:55.015Z,50.30
2022-11-20T05:42:33.237Z,66.32
2022-11-20T05:45:08.084Z,63.28
2022-11-20T05:47:37.346Z,76.10
2022-11-20T05:50:06.517Z,66.80
2022-11-20T05:52:35.816Z,61.08
2022-11-20T05:55:05.280Z,79.35
2022-11-20T05:57:34.515Z,75.70
2022-11-20T06:00:05.834Z,81.32
2022-11-20T06:02:38.362Z,77.97
2022-11-20T06:05:08.014Z,66.28
2022-11-20T06:07:37.416Z,88.20
2022-11-20T06:10:06.869Z,62.20
2022-11-20T06:12:35.872Z,62.25
2022-11-20T06:15:06.266Z,42.88
2022-11-20T06:17:35.244Z,49.03
2022-11-20T06:20:04.725Z,43.65
2022-11-20T06:22:34.828Z,54.25
2022-11-20T06:25:03.962Z,53.33
2022-11-20T06:27:32.941Z,44.63
2022-11-20T06:30:02.317Z,40.03
2022-11-20T06:32:31.684Z,43.50
2022-11-20T06:35:00.669Z,33.78
2022-11-20T06:37:29.615Z,37.00
2022-11-20T06:39:58.868Z,39.22
2022-11-20T06:42:28.221Z,36.45
2022-11-20T06:44:57.195Z,37.55
2022-11-20T06:47:26.213Z,37.75
2022-11-20T06:49:55.606Z,27.17
2022-11-20T06:52:24.478Z,37.33
2022-11-20T06:54:53.420Z,33.80
2022-11-20T06:57:22.727Z,37.63
2022-11-20T06:59:51.796Z,41.30
2022-11-20T07:02:20.725Z,27.02
2022-11-20T07:04:49.880Z,31.02
2022-11-20T07:07:18.947Z,38.28
2022-11-20T07:09:47.866Z,32.67
2022-11-20T07:12:17.021Z,34.97
2022-11-20T07:14:45.829Z,37.13
2022-11-20T07:17:15.137Z,36.20
2022-11-20T07:19:45.031Z,31.50
2022-11-20T07:22:13.842Z,45.45
2022-11-20T07:24:45.946Z,39.72
2022-11-20T07:27:15.266Z,38.20
2022-11-20T07:29:44.197Z,33.85
2022-11-20T07:32:13.221Z,26.05
2022-11-20T07:34:42.155Z,37.42
2022-11-20T07:37:11.156Z,44.63
2022-11-20T07:39:40.457Z,36.03
2022-11-20T07:42:10.255Z,26.17
2022-11-20T07:44:39.887Z,27.45
2022-11-20T07:47:09.150Z,32.20
2022-11-20T07:49:38.145Z,31.25
2022-11-20T07:52:07.069Z,25.15
2022-11-20T07:54:36.273Z,27.85
2022-11-20T07:57:05.412Z,28.67
2022-11-20T07:59:34.489Z,33.95
2022-11-20T08:02:03.376Z,25.08
2022-11-20T08:04:32.467Z,40.90
2022-11-20T08:07:01.573Z,25.50
2022-11-20T08:09:31.090Z,31.92
2022-11-20T08:12:18.462Z,17.27
2022-11-20T08:14:47.525Z,28.95
2022-11-20T08:17:16.372Z,27.65
2022-11-20T08:19:45.346Z,24.00
2022-11-20T08:22:15.227Z,31.58
2022-11-20T08:24:45.494Z,34.15
2022-11-20T08:27:14.552Z,41.05
2022-11-20T08:29:43.394Z,30.30
2022-11-20T08:32:12.578Z,28.67
2022-11-20T08:34:41.380Z,24.65
2022-11-20T08:37:10.345Z,22.80
2022-11-20T08:39:39.478Z,31.27
2022-11-20T08:42:11.673Z,49.83
2022-11-20T08:44:40.661Z,32.28
2022-11-20T08:47:10.109Z,39.90
2022-11-20T08:49:39.229Z,25.60
2022-11-20T08:52:08.336Z,29.13
2022-11-20T08:54:37.341Z,34.10
2022-11-20T08:57:06.508Z,32.50
2022-11-20T09:00:05.611Z,32.00
2022-11-20T09:02:24.978Z,26.77
2022-11-20T09:04:55.368Z,42.17
2022-11-20T09:07:24.378Z,24.75
2022-11-20T09:10:16.526Z,23.85
2022-11-20T09:12:42.510Z,34.30
2022-11-20T09:15:12.192Z,27.23
2022-11-20T09:17:41.516Z,26.45
2022-11-20T09:20:11.873Z,29.65
2022-11-20T09:22:43.020Z,27.55
2022-11-20T09:25:12.148Z,33.33
2022-11-20T09:27:43.496Z,27.23
2022-11-20T09:30:12.994Z,34.40
2022-11-20T09:32:42.970Z,36.25
2022-11-20T09:35:12.869Z,38.13
2022-11-20T09:37:42.090Z,43.80
2022-11-20T09:40:24.899Z,29.88
2022-11-20T09:45:46.548Z,39.97
2022-11-20T09:48:35.583Z,31.73
2022-11-20T09:51:27.132Z,25.38
2022-11-20T09:54:14.334Z,29.75
2022-11-20T09:57:15.737Z,28.05
2022-11-20T09:59:49.162Z,25.02
2022-11-20T10:02:39.430Z,28.33
2022-11-20T10:05:30.783Z,22.35
2022-11-20T10:08:21.055Z,26.20
2022-11-20T10:11:01.387Z,23.30
2022-11-20T10:13:36.889Z,36.80
2022-11-20T10:16:05.931Z,26.38
2022-11-20T10:18:41.105Z,26.95
2022-11-20T10:21:18.764Z,35.50
2022-11-20T10:24:09.419Z,19.45
2022-11-20T10:26:54.891Z,23.77
2022-11-20T10:29:36.593Z,80.88
2022-11-20T10:32:16.381Z,36.90
2022-11-20T10:34:51.751Z,27.00
2022-11-20T10:37:33.691Z,29.58
2022-11-20T10:40:08.374Z,58.92
2022-11-20T10:42:45.666Z,21.65
2022-11-20T10:45:27.070Z,29.58
2022-11-20T10:48:13.470Z,32.70
2022-11-20T10:51:07.373Z,42.65
2022-11-20T10:53:46.422Z,38.08
2022-11-20T10:56:20.696Z,56.75
2022-11-20T10:58:52.708Z,60.50
2022-11-20T11:01:28.483Z,64.90
2022-11-20T11:03:59.446Z,42.28
2022-11-20T11:06:46.230Z,35.40
2022-11-20T11:09:24.296Z,46.78
2022-11-20T11:11:54.087Z,57.33
2022-11-20T11:14:23.012Z,52.88
2022-11-20T11:16:57.752Z,51.28
2022-11-20T11:19:26.936Z,49.95
2022-11-20T11:21:59.790Z,58.38
2022-11-20T11:24:46.285Z,58.42
2022-11-20T11:27:19.806Z,76.45
2022-11-20T11:29:49.420Z,47.28
2022-11-20T11:32:23.667Z,52.33
2022-11-20T11:35:08.474Z,51.92
2022-11-20T11:37:40.569Z,41.63
2022-11-20T11:40:28.537Z,51.50
2022-11-20T11:43:04.915Z,61.15
2022-11-20T11:45:34.474Z,69.88
2022-11-20T11:48:05.971Z,73.03
2022-11-20T11:50:36.349Z,72.13
2022-11-20T11:53:25.294Z,87.50
2022-11-20T11:56:12.254Z,92.38
2022-11-20T11:58:48.048Z,86.50
2022-11-20T12:01:43.401Z,72.55
2022-11-20T12:04:30.062Z,62.50
2022-11-20T12:07:45.631Z,63.83
2022-11-20T12:10:52.258Z,74.25
2022-11-20T12:13:49.180Z,77.70
2022-11-20T12:16:22.278Z,77.65
2022-11-20T12:18:55.740Z,88.53
2022-11-20T12:21:53.639Z,110.22
2022-11-20T12:24:55.726Z,69.75
2022-11-20T12:27:49.785Z,95.97
2022-11-20T12:30:21.089Z,90.95
2022-11-20T12:33:19.727Z,84.82
2022-11-20T12:35:51.792Z,80.60
2022-11-20T12:38:51.434Z,98.30
2022-11-20T12:42:12.275Z,87.93
2022-11-20T12:45:13.894Z,62.92
2022-11-20T12:47:46.040Z,58.53
2022-11-20T12:50:25.812Z,52.15
2022-11-20T12:53:00.879Z,64.78
2022-11-20T12:55:50.161Z,69.13
2022-11-20T12:58:37.861Z,83.60
2022-11-20T13:01:43.096Z,54.92
2022-11-20T13:04:32.692Z,72.13
2022-11-20T13:07:05.034Z,75.95
2022-11-20T13:09:37.267Z,86.75
2022-11-20T13:12:31.811Z,87.18
2022-11-20T13:15:25.368Z,90.10
2022-11-20T13:18:02.293Z,94.20
2022-11-20T13:20:44.843Z,101.10
2022-11-20T13:23:14.192Z,78.82
2022-11-20T13:25:43.393Z,101.22
2022-11-20T13:28:12.568Z,114.78
2022-11-20T13:31:00.749Z,113.32
2022-11-20T13:33:30.076Z,93.97
2022-11-20T13:36:08.557Z,89.55
2022-11-20T13:38:50.341Z,86.90
2022-11-20T13:41:33.750Z,88.38
2022-11-20T13:44:14.994Z,80.47
2022-11-20T13:46:47.365Z,101.90
2022-11-20T13:49:46.766Z,100.55
2022-11-20T13:52:51.169Z,89.80
2022-11-20T13:55:26.049Z,83.15
2022-11-20T13:58:18.907Z,102.13
2022-11-20T14:00:59.368Z,110.85
2022-11-20T14:03:58.956Z,98.88
2022-11-20T14:06:29.631Z,99.72
2022-11-20T14:09:00.467Z,94.03
2022-11-20T14:11:31.569Z,91.15
2022-11-20T14:14:02.326Z,124.43
2022-11-20T14:16:34.490Z,113.50
2022-11-20T14:19:33.101Z,118.25
2022-11-20T14:22:28.989Z,124.90
2022-11-20T14:25:23.621Z,201.07
2022-11-20T14:28:03.841Z,155.02
2022-11-20T14:30:46.441Z,142.77
2022-11-20T14:33:17.507Z,154.48
2022-11-20T14:35:49.706Z,212.45
2022-11-20T14:38:22.331Z,375.85
2022-11-20T14:40:51.333Z,511.08
2022-11-20T14:43:27.477Z,396.73
2022-11-20T14:46:06.353Z,245.25
2022-11-20T14:48:59.972Z,184.05
2022-11-20T14:51:43.725Z,175.88
2022-11-20T14:54:19.154Z,172.98
2022-11-20T14:57:03.629Z,181.00
2022-11-20T14:59:36.149Z,180.00
2022-11-20T15:02:12.792Z,184.95
2022-11-20T15:04:53.121Z,284.38
2022-11-20T15:07:30.530Z,199.65
2022-11-20T15:10:29.085Z,155.82
2022-11-20T15:13:12.776Z,175.57
2022-11-20T15:15:51.454Z,210.50
2022-11-20T15:18:29.885Z,259.30
2022-11-20T15:21:02.990Z,236.30
2022-11-20T15:23:32.593Z,171.30
2022-11-20T15:26:01.556Z,195.40
2022-11-20T15:28:35.985Z,186.60
2022-11-20T15:31:06.247Z,159.45
2022-11-20T15:33:36.281Z,197.90
2022-11-20T15:36:06.109Z,169.27
2022-11-20T15:38:35.150Z,157.95
2022-11-20T15:41:04.121Z,177.45
2022-11-20T15:43:33.489Z,181.43
2022-11-20T15:46:08.437Z,203.55
2022-11-20T15:48:43.227Z,223.55
2022-11-20T15:51:32.967Z,194.68
2022-11-20T15:54:03.870Z,228.50
2022-11-20T15:56:35.320Z,212.43
2022-11-20T15:59:04.428Z,192.95
2022-11-20T16:01:33.591Z,189.10
2022-11-20T16:04:04.128Z,169.07
2022-11-20T16:06:33.222Z,169.93
2022-11-20T16:09:02.282Z,175.40
2022-11-20T16:11:31.266Z,177.13
2022-11-20T16:14:18.643Z,180.18
2022-11-20T16:16:48.145Z,166.18
2022-11-20T16:19:17.589Z,192.35
2022-11-20T16:21:47.260Z,216.20
2022-11-20T16:24:18.135Z,207.20
2022-11-20T16:26:47.538Z,258.58
2022-11-20T16:29:16.530Z,256.70
2022-11-20T16:31:45.536Z,280.55
2022-11-20T16:34:14.703Z,257.15
2022-11-20T16:36:45.522Z,280.70
2022-11-20T16:39:18.999Z,325.77
2022-11-20T16:41:51.069Z,323.42
2022-11-20T16:44:20.194Z,330.88
2022-11-20T16:46:49.280Z,346.23
2022-11-20T16:49:19.066Z,348.98
2022-11-20T16:51:49.205Z,360.77
2022-11-20T16:54:21.131Z,367.77
2022-11-20T16:56:52.123Z,369.00
2022-11-20T16:59:21.700Z,386.42
2022-11-20T17:01:50.994Z,373.60
2022-11-20T17:04:20.048Z,378.13
2022-11-20T17:06:49.248Z,385.05
2022-11-20T17:09:18.736Z,418.80
2022-11-20T17:11:50.232Z,418.48
2022-11-20T17:14:19.408Z,428.60
2022-11-20T17:16:48.596Z,437.80
2022-11-20T17:19:17.978Z,420.88
2022-11-20T17:21:46.906Z,431.90
2022-11-20T17:24:17.475Z,428.65
2022-11-20T17:26:46.867Z,394.00
2022-11-20T17:29:19.158Z,412.35
2022-11-20T17:31:50.265Z,377.40
2022-11-20T17:34:19.879Z,407.23
2022-11-20T17:36:49.452Z,385.85
2022-11-20T17:39:19.292Z,374.85
2022-11-20T17:42:08.257Z,370.85
2022-11-20T17:44:37.614Z,345.52
2022-11-20T17:47:06.483Z,369.70
2022-11-20T17:49:35.832Z,351.10
2022-11-20T17:52:05.621Z,381.58
2022-11-20T17:54:34.674Z,342.20
2022-11-20T17:57:22.111Z,302.48
2022-11-20T17:59:51.476Z,304.30
2022-11-20T18:02:20.325Z,259.05
2022-11-20T18:04:49.596Z,273.58
2022-11-20T18:07:18.656Z,263.65
2022-11-20T18:09:47.727Z,270.73
2022-11-20T18:12:16.667Z,294.90
2022-11-20T18:14:45.630Z,298.42
2022-11-20T18:17:16.757Z,287.90
2022-11-20T18:20:07.190Z,270.40
2022-11-20T18:22:38.589Z,249.10
2022-11-20T18:25:08.222Z,246.02
2022-11-20T18:27:37.765Z,235.05
2022-11-20T18:30:08.194Z,224.50
2022-11-20T18:32:37.737Z,211.68
2022-11-20T18:35:07.449Z,220.90
2022-11-20T18:37:36.343Z,225.18
2022-11-20T18:40:06.042Z,299.90
2022-11-20T18:42:57.104Z,326.58
2022-11-20T18:45:26.579Z,232.85
2022-11-20T18:47:55.426Z,254.32
2022-11-20T18:50:24.619Z,225.82
2022-11-20T18:52:54.158Z,227.95
2022-11-20T18:55:26.023Z,254.18
2022-11-20T18:57:56.284Z,250.73
2022-11-20T19:00:25.799Z,220.75
2022-11-20T19:02:56.054Z,205.60
2022-11-20T19:05:25.258Z,219.52
2022-11-20T19:07:54.171Z,227.25
2022-11-20T19:10:25.496Z,198.98
2022-11-20T19:12:54.796Z,227.50
2022-11-20T19:15:23.679Z,214.52
2022-11-20T19:17:53.201Z,241.73
2022-11-20T19:20:22.197Z,231.80
2022-11-20T19:22:55.220Z,222.55
2022-11-20T19:25:24.354Z,229.05
2022-11-20T19:27:53.541Z,204.20
2022-11-20T19:30:22.820Z,222.43
2022-11-20T19:32:51.770Z,233.90
2022-11-20T19:35:20.949Z,225.25
2022-11-20T19:37:50.002Z,230.68
2022-11-20T19:40:18.916Z,220.45
2022-11-20T19:42:48.063Z,227.55
2022-11-20T19:45:17.258Z,232.90
2022-11-20T19:48:06.564Z,215.55
2022-11-20T19:50:35.863Z,214.20
2022-11-20T19:53:05.206Z,235.65
2022-11-20T19:55:34.193Z,242.93
2022-11-20T19:58:05.394Z,250.38
2022-11-20T20:00:34.576Z,228.95
2022-11-20T20:03:06.172Z,226.50
2022-11-20T20:05:35.868Z,248.45
2022-11-20T20:08:05.118Z,253.65
2022-11-20T20:10:34.322Z,238.65
2022-11-20T20:13:03.599Z,245.35
2022-11-20T20:15:33.107Z,251.23
2022-11-20T20:18:02.173Z,252.35
2022-11-20T20:20:31.193Z,252.45
2022-11-20T20:23:00.212Z,259.25
2022-11-20T20:25:29.325Z,278.63
2022-11-20T20:27:58.364Z,259.55
2022-11-20T20:30:27.815Z,269.13
2022-11-20T20:32:56.923Z,272.35
2022-11-20T20:35:26.164Z,256.88
2022-11-20T20:37:55.745Z,287.58
2022-11-20T20:40:24.963Z,265.38
2022-11-20T20:42:53.879Z,275.02
2022-11-20T20:45:23.183Z,286.30
2022-11-20T20:47:52.251Z,283.95
2022-11-20T20:50:21.779Z,280.30
2022-11-20T20:52:51.301Z,267.17
2022-11-20T20:55:20.330Z,278.83
2022-11-20T20:57:49.407Z,300.15
2022-11-20T21:00:18.749Z,279.05
2022-11-20T21:02:47.675Z,282.23
2022-11-20T21:05:17.219Z,275.45
2022-11-20T21:08:04.540Z,271.58
2022-11-20T21:10:35.763Z,293.63
2022-11-20T21:13:04.842Z,285.50
2022-11-20T21:15:33.768Z,286.38
2022-11-20T21:18:06.088Z,293.52
2022-11-20T21:20:53.795Z,285.65
2022-11-20T21:23:23.079Z,306.50
2022-11-20T21:25:51.954Z,314.55
2022-11-20T21:28:21.181Z,357.90
2022-11-20T21:30:50.368Z,344.13
2022-11-20T21:33:19.538Z,319.20
2022-11-20T21:35:48.369Z,359.70
2022-11-20T21:38:17.548Z,347.67
2022-11-20T21:40:46.676Z,353.10
2022-11-20T21:43:16.062Z,391.20
2022-11-20T21:45:45.056Z,387.95
2022-11-20T21:48:13.955Z,437.88
2022-11-20T21:50:43.509Z,456.33
2022-11-20T21:53:12.433Z,483.02
2022-11-20T21:55:41.426Z,467.85
2022-11-20T21:58:10.706Z,469.33
2022-11-20T22:00:39.837Z,464.55
2022-11-20T22:03:08.957Z,468.40
2022-11-20T22:05:37.932Z,457.38
2022-11-20T22:08:07.349Z,470.48
2022-11-20T22:10:36.381Z,460.70
2022-11-20T22:13:23.793Z,463.85
2022-11-20T22:16:00.864Z,474.83
2022-11-20T22:18:30.320Z,461.42
2022-11-20T22:21:04.142Z,461.13
2022-11-20T22:23:33.382Z,462.40
2022-11-20T22:26:11.068Z,458.92
2022-11-20T22:28:41.144Z,472.00
2022-11-20T22:31:12.323Z,466.40
2022-11-20T22:33:42.015Z,473.73
2022-11-20T22:36:17.116Z,457.92
2022-11-20T22:38:46.593Z,462.67
2022-11-20T22:41:28.229Z,470.38
2022-11-20T22:44:08.424Z,451.25
2022-11-20T22:46:39.276Z,424.80
2022-11-20T22:49:12.334Z,404.15
2022-11-20T22:51:42.996Z,418.67
2022-11-20T22:54:14.034Z,394.58
2022-11-20T22:56:43.342Z,331.73
2022-11-20T22:59:12.429Z,343.73
2022-11-20T23:01:41.612Z,327.92
2022-11-20T23:04:12.651Z,268.83
2022-11-20T23:06:41.857Z,254.00
2022-11-20T23:09:12.501Z,235.25
2022-11-20T23:11:41.874Z,229.02
2022-11-20T23:14:16.282Z,257.70
2022-11-20T23:16:45.394Z,236.70
2022-11-20T23:19:15.668Z,249.23
2022-11-20T23:21:44.878Z,222.77
2022-11-20T23:24:14.036Z,217.95
2022-11-20T23:26:43.300Z,202.25
2022-11-20T23:29:13.090Z,189.13
2022-11-20T23:31:42.190Z,200.90
2022-11-20T23:34:11.688Z,197.55
2022-11-20T23:36:41.134Z,214.23
2022-11-20T23:39:10.344Z,201.90
2022-11-20T23:41:39.452Z,199.70
2022-11-20T23:44:08.577Z,206.57
2022-11-20T23:46:37.720Z,231.68
2022-11-20T23:49:07.007Z,231.45
2022-11-20T23:51:36.018Z,305.98
2022-11-20T23:54:05.167Z,358.73
2022-11-20T23:56:34.271Z,397.90
2022-11-20T23:59:03.414Z,444.13
